Time,TemperatureF,DewpointF,PressureIn,WindDirection,WindDirectionDegrees,WindSpeedMPH,WindSpeedGustMPH,Humidity,HourlyPrecipIn,Conditions,Clouds,dailyrainin,SoftwareType,DateUTC
2013-05-09 07:30:00,56.4,55.3,29.94,NNE,22,0.0,0.0,96,0.00,,---,0.06,VWS V14.01,2013-05-09 11:30:00,
2013-05-09 08:14:00,57.1,56.0,29.94,SW,219,0.0,0.0,96,0.00,,---,0.06,VWS V14.01,2013-05-09 12:14:00,
2013-05-09 08:15:00,57.0,55.9,29.94,SW,218,0.0,0.0,96,0.00,,---,0.06,VWS V14.01,2013-05-09 12:15:00,
2013-05-09 08:16:00,57.1,56.0,29.94,SW,219,0.0,0.0,96,0.00,,---,0.06,VWS V14.01,2013-05-09 12:16:00,
2013-05-09 08:18:00,57.1,56.0,29.94,SW,219,0.0,0.0,96,0.00,,---,0.06,VWS V14.01,2013-05-09 12:18:00,
2013-05-09 08:19:00,57.1,56.0,29.94,SW,219,0.0,0.0,96,0.00,,---,0.06,VWS V14.01,2013-05-09 12:19:00,
2013-05-09 08:24:00,57.3,56.2,29.94,SW,219,0.0,0.0,96,0.00,,---,0.06,VWS V14.01,2013-05-09 12:24:00,
2013-05-09 08:29:00,57.4,56.3,29.93,SW,218,0.0,0.0,96,0.00,,---,0.06,VWS V14.01,2013-05-09 12:29:00,
2013-05-09 08:34:00,57.5,56.4,29.93,SW,219,0.0,0.0,96,0.00,,---,0.06,VWS V14.01,2013-05-09 12:34:00,
2013-05-09 08:39:00,57.6,56.5,29.94,SW,218,0.0,0.0,96,0.00,,---,0.06,VWS V14.01,2013-05-09 12:39:00,
2013-05-09 08:44:00,57.6,56.5,29.93,SW,219,0.0,0.0,96,0.00,,---,0.06,VWS V14.01,2013-05-09 12:44:00,
2013-05-09 08:49:00,57.7,56.6,29.93,SW,218,0.0,0.0,96,0.00,,---,0.06,VWS V14.01,2013-05-09 12:49:00,
2013-05-09 08:55:00,57.8,56.7,29.94,SW,218,0.0,0.0,96,0.00,,---,0.06,VWS V14.01,2013-05-09 12:55:00,
2013-05-09 09:00:00,57.8,56.7,29.94,SW,219,0.0,0.0,96,0.00,,---,0.06,VWS V14.01,2013-05-09 13:00:00,
2013-05-09 09:05:00,57.8,56.7,29.94,SW,218,0.0,0.0,96,0.00,,---,0.06,VWS V14.01,2013-05-09 13:05:00,
2013-05-09 09:10:00,57.7,56.3,29.93,SW,219,0.0,0.0,95,0.00,,---,0.06,VWS V14.01,2013-05-09 13:10:00,
2013-05-09 09:15:00,57.8,56.7,29.94,SW,219,0.0,0.0,96,0.00,,---,0.06,VWS V14.01,2013-05-09 13:15:00,
2013-05-09 09:20:00,57.8,56.7,29.94,SW,218,0.0,0.0,96,0.00,,---,0.06,VWS V14.01,2013-05-09 13:20:00,
2013-05-09 09:25:00,57.9,56.8,29.94,SW,218,0.0,0.0,96,0.00,,---,0.06,VWS V14.01,2013-05-09 13:25:00,
2013-05-09 09:30:00,57.9,56.8,29.94,SW,219,0.0,0.0,96,0.00,,---,0.06,VWS V14.01,2013-05-09 13:30:00,
2013-05-09 09:35:00,57.8,56.7,29.94,SW,219,0.0,0.0,96,0.00,,---,0.06,VWS V14.01,2013-05-09 13:35:00,
2013-05-09 09:40:00,57.7,56.3,29.94,SW,218,0.0,0.0,95,0.00,,---,0.06,VWS V14.01,2013-05-09 13:40:00,
2013-05-09 09:45:00,57.7,56.3,29.93,SW,218,0.0,0.0,95,0.00,,---,0.06,VWS V14.01,2013-05-09 13:45:00,
2013-05-09 09:50:00,57.5,56.1,29.94,SW,219,0.0,0.0,95,0.00,,---,0.06,VWS V14.01,2013-05-09 13:50:00,
2013-05-09 09:55:00,57.5,56.1,29.93,SW,219,0.0,0.0,95,0.00,,---,0.06,VWS V14.01,2013-05-09 13:55:00,
2013-05-09 10:00:00,57.6,56.5,29.93,SW,219,0.0,0.0,96,0.00,,---,0.06,VWS V14.01,2013-05-09 14:00:00,
2013-05-09 10:05:00,57.7,56.6,29.94,SW,219,0.0,0.0,96,0.00,,---,0.06,VWS V14.01,2013-05-09 14:05:00,
2013-05-09 10:10:00,57.8,56.7,29.93,SW,219,0.0,0.0,96,0.00,,---,0.06,VWS V14.01,2013-05-09 14:10:00,
2013-05-09 10:15:00,57.9,56.8,29.93,SW,218,0.0,0.0,96,0.00,,---,0.06,VWS V14.01,2013-05-09 14:15:00,
2013-05-09 10:20:00,57.9,56.8,29.93,SW,218,0.0,0.0,96,0.00,,---,0.06,VWS V14.01,2013-05-09 14:20:00,
2013-05-09 10:25:00,57.9,56.8,29.93,SW,219,0.0,0.0,96,0.00,,---,0.06,VWS V14.01,2013-05-09 14:25:00,
2013-05-09 10:30:00,58.0,56.9,29.93,SW,218,0.0,0.0,96,0.00,,---,0.06,VWS V14.01,2013-05-09 14:30:00,
2013-05-09 10:35:00,58.1,56.7,29.93,SW,218,0.0,0.0,95,0.00,,---,0.06,VWS V14.01,2013-05-09 14:35:00,
2013-05-09 10:40:00,58.1,56.7,29.92,SW,218,0.0,0.0,95,0.00,,---,0.06,VWS V14.01,2013-05-09 14:40:00,
2013-05-09 10:45:00,58.1,56.7,29.92,SW,218,0.0,0.0,95,0.00,,---,0.06,VWS V14.01,2013-05-09 14:45:00,
2013-05-09 10:50:00,58.3,56.9,29.92,SW,218,0.0,0.0,95,0.00,,---,0.06,VWS V14.01,2013-05-09 14:50:00,
2013-05-09 10:55:00,58.3,56.9,29.92,SW,218,0.0,0.0,95,0.00,,---,0.06,VWS V14.01,2013-05-09 14:55:00,
2013-05-09 11:00:00,58.4,57.0,29.92,SW,218,0.0,0.0,95,0.00,,---,0.06,VWS V14.01,2013-05-09 15:00:00,
2013-05-09 11:05:00,58.4,57.0,29.92,SW,218,0.0,0.0,95,0.00,,---,0.06,VWS V14.01,2013-05-09 15:05:00,
2013-05-09 11:10:00,58.6,57.2,29.92,SW,218,0.0,0.0,95,0.00,,---,0.06,VWS V14.01,2013-05-09 15:10:00,
2013-05-09 11:15:00,58.9,57.5,29.92,SW,218,0.0,0.0,95,0.00,,---,0.06,VWS V14.01,2013-05-09 15:15:00,
2013-05-09 11:20:00,59.2,57.8,29.92,SW,218,0.0,0.0,95,0.00,,---,0.06,VWS V14.01,2013-05-09 15:20:00,
2013-05-09 11:25:00,59.3,57.9,29.92,SW,218,0.0,0.0,95,0.00,,---,0.06,VWS V14.01,2013-05-09 15:25:00,
2013-05-09 11:30:00,59.4,58.0,29.92,SW,218,0.0,0.0,95,0.00,,---,0.06,VWS V14.01,2013-05-09 15:30:00,
2013-05-09 11:35:00,59.6,57.9,29.92,SW,218,0.0,0.0,94,0.00,,---,0.06,VWS V14.01,2013-05-09 15:35:00,
2013-05-09 11:40:00,59.9,58.2,29.92,SW,218,0.0,0.0,94,0.00,,---,0.06,VWS V14.01,2013-05-09 15:40:00,
2013-05-09 11:45:00,60.0,58.0,29.92,SW,218,0.0,0.0,93,0.00,,---,0.06,VWS V14.01,2013-05-09 15:45:00,
2013-05-09 11:50:00,59.9,57.9,29.91,SW,218,0.0,0.0,93,0.00,,---,0.06,VWS V14.01,2013-05-09 15:50:00,
2013-05-09 11:55:00,59.9,57.9,29.91,SW,218,0.0,0.0,93,0.00,,---,0.06,VWS V14.01,2013-05-09 15:55:00,
2013-05-09 12:00:00,60.0,58.0,29.91,SW,218,0.0,0.0,93,0.00,,---,0.06,VWS V14.01,2013-05-09 16:00:00,
2013-05-09 12:06:00,60.1,58.1,29.91,SW,218,0.0,0.0,93,0.00,,---,0.06,VWS V14.01,2013-05-09 16:06:00,
2013-05-09 12:11:00,60.1,58.1,29.91,SW,218,0.0,0.0,93,0.00,,---,0.06,VWS V14.01,2013-05-09 16:11:00,
2013-05-09 12:16:00,60.2,58.2,29.92,SW,218,0.0,0.0,93,0.00,,---,0.06,VWS V14.01,2013-05-09 16:16:00,
2013-05-09 12:21:00,60.3,58.3,29.92,SW,218,0.0,0.0,93,0.00,,---,0.06,VWS V14.01,2013-05-09 16:21:00,
2013-05-09 12:26:00,60.4,58.4,29.92,SW,218,0.0,0.0,93,0.00,,---,0.06,VWS V14.01,2013-05-09 16:26:00,
2013-05-09 12:31:00,60.5,58.5,29.92,SW,218,0.0,0.0,93,0.00,,---,0.06,VWS V14.01,2013-05-09 16:31:00,
2013-05-09 12:36:00,60.6,58.6,29.92,SW,218,0.0,0.0,93,0.01,,---,0.07,VWS V14.01,2013-05-09 16:36:00,
2013-05-09 12:41:00,60.7,59.0,29.92,SW,218,0.0,0.0,94,0.01,,---,0.07,VWS V14.01,2013-05-09 16:41:00,
2013-05-09 12:46:00,60.9,59.2,29.91,SW,218,0.0,0.0,94,0.02,,---,0.08,VWS V14.01,2013-05-09 16:46:00,
2013-05-09 12:51:00,61.0,59.3,29.91,SW,218,0.0,0.0,94,0.02,,---,0.08,VWS V14.01,2013-05-09 16:51:00,
2013-05-09 12:56:00,61.2,59.5,29.91,SW,218,0.0,0.0,94,0.02,,---,0.08,VWS V14.01,2013-05-09 16:56:00,
2013-05-09 13:01:00,61.3,59.6,29.91,SW,218,0.0,0.0,94,0.02,,---,0.08,VWS V14.01,2013-05-09 17:01:00,
2013-05-09 13:06:00,61.3,59.6,29.91,SW,218,0.0,0.0,94,0.02,,---,0.08,VWS V14.01,2013-05-09 17:06:00,
2013-05-09 13:11:00,61.3,59.3,29.91,SW,218,0.0,0.0,93,0.03,,---,0.09,VWS V14.01,2013-05-09 17:11:00,
2013-05-09 13:16:00,61.3,59.3,29.91,SW,218,0.0,0.0,93,0.03,,---,0.09,VWS V14.01,2013-05-09 17:16:00,
2013-05-09 13:21:00,61.3,59.3,29.91,SW,218,0.0,0.0,93,0.03,,---,0.09,VWS V14.01,2013-05-09 17:21:00,
2013-05-09 13:26:00,61.3,59.3,29.91,SW,218,0.0,0.0,93,0.04,,---,0.10,VWS V14.01,2013-05-09 17:26:00,
2013-05-09 13:31:00,61.3,59.6,29.91,SW,218,0.0,0.0,94,0.04,,---,0.10,VWS V14.01,2013-05-09 17:31:00,
2013-05-09 13:36:00,61.1,59.4,29.91,SW,218,0.0,0.0,94,0.04,,---,0.10,VWS V14.01,2013-05-09 17:36:00,
2013-05-09 13:41:00,61.0,59.0,29.91,SW,218,0.0,0.0,93,0.06,,---,0.12,VWS V14.01,2013-05-09 17:41:00,
2013-05-09 13:46:00,60.9,59.2,29.91,SW,218,0.0,0.0,94,0.07,,---,0.13,VWS V14.01,2013-05-09 17:46:00,
2013-05-09 13:51:00,60.9,59.2,29.91,SW,218,0.0,0.0,94,0.09,,---,0.15,VWS V14.01,2013-05-09 17:51:00,
2013-05-09 13:56:00,60.8,59.1,29.90,SW,218,0.0,0.0,94,0.11,,---,0.17,VWS V14.01,2013-05-09 17:56:00,
2013-05-09 14:01:00,60.6,58.9,29.90,SW,218,0.0,0.0,94,0.10,,---,0.18,VWS V14.01,2013-05-09 18:01:00,
2013-05-09 14:06:00,60.5,58.8,29.89,SW,218,0.0,0.0,94,0.12,,---,0.20,VWS V14.01,2013-05-09 18:06:00,
2013-05-09 14:11:00,60.4,59.0,29.87,SW,218,0.0,0.0,95,0.14,,---,0.22,VWS V14.01,2013-05-09 18:11:00,
2013-05-09 14:16:00,60.4,59.0,29.87,SW,218,0.0,0.0,95,0.15,,---,0.23,VWS V14.01,2013-05-09 18:16:00,
2013-05-09 14:21:00,60.3,58.9,29.86,SW,218,0.0,0.0,95,0.16,,---,0.24,VWS V14.01,2013-05-09 18:21:00,
2013-05-09 14:26:00,60.3,58.9,29.86,SW,218,0.0,0.0,95,0.16,,---,0.24,VWS V14.01,2013-05-09 18:26:00,
2013-05-09 14:31:00,60.3,58.9,29.86,SW,218,0.0,0.0,95,0.15,,---,0.25,VWS V14.01,2013-05-09 18:31:00,
2013-05-09 14:36:00,60.3,58.9,29.86,SW,218,0.0,0.0,95,0.15,,---,0.25,VWS V14.01,2013-05-09 18:36:00,
2013-05-09 14:41:00,60.2,58.8,29.87,SW,218,0.0,0.0,95,0.15,,---,0.25,VWS V14.01,2013-05-09 18:41:00,
2013-05-09 14:46:00,60.2,58.8,29.87,SW,218,0.0,0.0,95,0.15,,---,0.25,VWS V14.01,2013-05-09 18:46:00,
2013-05-09 14:51:00,60.2,58.8,29.87,SW,218,0.0,0.0,95,0.15,,---,0.25,VWS V14.01,2013-05-09 18:51:00,
2013-05-09 14:56:00,60.2,58.8,29.87,SW,218,0.0,0.0,95,0.15,,---,0.25,VWS V14.01,2013-05-09 18:56:00,
2013-05-09 15:01:00,60.4,59.3,29.87,SW,218,0.0,0.0,96,0.07,,---,0.25,VWS V14.01,2013-05-09 19:01:00,
2013-05-09 15:06:00,60.5,59.4,29.87,SW,218,0.0,0.0,96,0.07,,---,0.25,VWS V14.01,2013-05-09 19:06:00,
2013-05-09 15:11:00,60.5,59.4,29.87,SW,218,0.0,0.0,96,0.07,,---,0.25,VWS V14.01,2013-05-09 19:11:00,
2013-05-09 15:16:00,60.6,59.2,29.87,SW,218,0.0,0.0,95,0.07,,---,0.25,VWS V14.01,2013-05-09 19:16:00,
2013-05-09 15:21:00,60.7,59.3,29.87,SW,218,0.0,0.0,95,0.07,,---,0.25,VWS V14.01,2013-05-09 19:21:00,
2013-05-09 15:26:00,61.0,59.9,29.87,SW,218,0.0,0.0,96,0.07,,---,0.25,VWS V14.01,2013-05-09 19:26:00,
2013-05-09 15:32:00,61.2,59.8,29.86,SW,218,0.0,0.0,95,0.00,,---,0.25,VWS V14.01,2013-05-09 19:32:00,
2013-05-09 15:37:00,61.6,60.2,29.86,SW,218,0.0,0.0,95,0.00,,---,0.25,VWS V14.01,2013-05-09 19:37:00,
2013-05-09 15:42:00,61.8,60.1,29.86,SW,218,0.0,0.0,94,0.00,,---,0.25,VWS V14.01,2013-05-09 19:42:00,
2013-05-09 15:47:00,62.0,60.3,29.86,SW,218,0.0,0.0,94,0.00,,---,0.25,VWS V14.01,2013-05-09 19:47:00,
2013-05-09 15:52:00,62.4,60.3,29.86,SW,218,0.0,0.0,93,0.00,,---,0.25,VWS V14.01,2013-05-09 19:52:00,
2013-05-09 15:57:00,62.5,60.2,29.86,SW,218,0.0,0.0,92,0.00,,---,0.25,VWS V14.01,2013-05-09 19:57:00,
2013-05-09 16:02:00,62.7,60.3,29.85,SW,218,0.0,0.0,92,0.00,,---,0.25,VWS V14.01,2013-05-09 20:02:00,
2013-05-09 16:07:00,62.8,60.1,29.85,SW,218,0.0,0.0,91,0.00,,---,0.25,VWS V14.01,2013-05-09 20:07:00,
2013-05-09 16:12:00,63.0,60.0,29.85,SW,218,0.0,0.0,90,0.00,,---,0.25,VWS V14.01,2013-05-09 20:12:00,
2013-05-09 16:17:00,63.2,60.2,29.85,SW,218,0.0,0.0,90,0.00,,---,0.25,VWS V14.01,2013-05-09 20:17:00,
2013-05-09 16:22:00,63.3,60.0,29.85,SW,218,0.0,0.0,89,0.00,,---,0.25,VWS V14.01,2013-05-09 20:22:00,
2013-05-09 16:27:00,63.3,59.7,29.85,SW,218,0.0,0.0,88,0.00,,---,0.25,VWS V14.01,2013-05-09 20:27:00,
2013-05-09 16:32:00,63.5,59.9,29.85,SW,218,0.0,0.0,88,0.00,,---,0.25,VWS V14.01,2013-05-09 20:32:00,
2013-05-09 16:37:00,63.6,59.7,29.85,SW,218,0.0,0.0,87,0.00,,---,0.25,VWS V14.01,2013-05-09 20:37:00,
2013-05-09 16:42:00,63.8,59.5,29.84,SW,218,0.0,0.0,86,0.00,,---,0.25,VWS V14.01,2013-05-09 20:42:00,
2013-05-09 16:47:00,63.8,59.5,29.84,SW,218,0.0,0.0,86,0.00,,---,0.25,VWS V14.01,2013-05-09 20:47:00,
2013-05-09 16:52:00,63.8,59.9,29.84,SW,218,0.0,0.0,87,0.00,,---,0.25,VWS V14.01,2013-05-09 20:52:00,
2013-05-09 16:57:00,63.9,60.3,29.84,SW,218,0.0,0.0,88,0.00,,---,0.25,VWS V14.01,2013-05-09 20:57:00,
2013-05-09 17:02:00,64.0,60.4,29.84,SW,218,0.0,0.0,88,0.00,,---,0.25,VWS V14.01,2013-05-09 21:02:00,
2013-05-09 17:07:00,64.0,60.4,29.84,SW,218,0.0,0.0,88,0.00,,---,0.25,VWS V14.01,2013-05-09 21:07:00,
2013-05-09 17:12:00,63.9,60.3,29.84,SW,218,0.0,0.0,88,0.00,,---,0.25,VWS V14.01,2013-05-09 21:12:00,
2013-05-09 17:17:00,63.8,60.2,29.84,SW,218,0.0,0.0,88,0.00,,---,0.25,VWS V14.01,2013-05-09 21:17:00,
2013-05-09 17:22:00,63.7,60.1,29.84,SW,216,0.0,0.0,88,0.00,,---,0.25,VWS V14.01,2013-05-09 21:22:00,
2013-05-09 17:27:00,63.6,60.0,29.84,SW,216,0.0,0.0,88,0.00,,---,0.25,VWS V14.01,2013-05-09 21:27:00,
2013-05-09 17:32:00,63.3,59.7,29.84,SW,219,0.0,0.0,88,0.00,,---,0.25,VWS V14.01,2013-05-09 21:32:00,
2013-05-09 17:37:00,63.2,59.6,29.84,SW,221,0.0,0.0,88,0.00,,---,0.25,VWS V14.01,2013-05-09 21:37:00,
2013-05-09 17:42:00,63.0,59.4,29.85,SW,221,0.0,0.0,88,0.00,,---,0.25,VWS V14.01,2013-05-09 21:42:00,
2013-05-09 17:47:00,62.8,59.5,29.84,SW,221,0.0,0.0,89,0.00,,---,0.25,VWS V14.01,2013-05-09 21:47:00,
2013-05-09 17:52:00,62.6,59.3,29.84,SW,221,0.0,0.0,89,0.00,,---,0.25,VWS V14.01,2013-05-09 21:52:00,
2013-05-09 17:57:00,62.5,59.2,29.84,SW,221,0.0,0.0,89,0.00,,---,0.25,VWS V14.01,2013-05-09 21:57:00,
2013-05-09 18:02:00,62.2,58.9,29.84,SW,221,0.0,0.0,89,0.00,,---,0.25,VWS V14.01,2013-05-09 22:02:00,
2013-05-09 18:07:00,62.1,59.1,29.84,SW,221,0.0,0.0,90,0.00,,---,0.25,VWS V14.01,2013-05-09 22:07:00,
2013-05-09 18:12:00,62.0,59.0,29.85,SW,221,0.0,0.0,90,0.00,,---,0.25,VWS V14.01,2013-05-09 22:12:00,
2013-05-09 18:17:00,61.8,58.8,29.85,SW,221,0.0,0.0,90,0.00,,---,0.25,VWS V14.01,2013-05-09 22:17:00,
2013-05-09 18:22:00,61.6,58.6,29.85,SW,221,0.0,0.0,90,0.00,,---,0.25,VWS V14.01,2013-05-09 22:22:00,
2013-05-09 18:27:00,61.5,58.8,29.85,SW,221,0.0,0.0,91,0.00,,---,0.25,VWS V14.01,2013-05-09 22:27:00,
2013-05-09 18:32:00,61.3,58.7,29.85,SW,221,0.0,0.0,91,0.00,,---,0.25,VWS V14.01,2013-05-09 22:32:00,
2013-05-09 18:37:00,61.1,58.5,29.85,SW,221,0.0,0.0,91,0.01,,---,0.26,VWS V14.01,2013-05-09 22:37:00,
2013-05-09 18:42:00,60.8,58.5,29.85,SW,221,0.0,0.0,92,0.03,,---,0.28,VWS V14.01,2013-05-09 22:42:00,
2013-05-09 18:47:00,60.6,58.3,29.85,SW,221,0.0,0.0,92,0.05,,---,0.30,VWS V14.01,2013-05-09 22:47:00,
2013-05-09 18:52:00,60.3,58.0,29.85,SW,221,0.0,0.0,92,0.09,,---,0.34,VWS V14.01,2013-05-09 22:52:00,
2013-05-09 18:57:00,60.2,58.2,29.85,SW,221,0.0,0.0,93,0.13,,---,0.38,VWS V14.01,2013-05-09 22:57:00,
2013-05-09 19:03:00,60.0,58.0,29.85,SW,221,0.0,0.0,93,0.15,,---,0.40,VWS V14.01,2013-05-09 23:03:00,
2013-05-09 19:08:00,59.8,57.8,29.84,SW,221,0.0,0.0,93,0.17,,---,0.42,VWS V14.01,2013-05-09 23:08:00,
2013-05-09 19:13:00,59.6,57.6,29.84,SW,221,0.0,0.0,93,0.19,,---,0.44,VWS V14.01,2013-05-09 23:13:00,
2013-05-09 19:18:00,59.5,57.8,29.84,SW,221,0.0,0.0,94,0.21,,---,0.46,VWS V14.01,2013-05-09 23:18:00,
2013-05-09 19:23:00,59.4,57.7,29.84,SW,221,0.0,0.0,94,0.22,,---,0.47,VWS V14.01,2013-05-09 23:23:00,
2013-05-09 19:28:00,59.3,57.6,29.84,SW,221,0.0,0.0,94,0.22,,---,0.47,VWS V14.01,2013-05-09 23:28:00,
2013-05-09 19:33:00,59.3,57.6,29.84,SW,221,0.0,0.0,94,0.23,,---,0.48,VWS V14.01,2013-05-09 23:33:00,
2013-05-09 19:38:00,59.2,57.5,29.83,SW,221,0.0,0.0,94,0.23,,---,0.48,VWS V14.01,2013-05-09 23:38:00,
2013-05-09 19:43:00,59.1,57.4,29.83,SW,221,0.0,0.0,94,0.25,,---,0.50,VWS V14.01,2013-05-09 23:43:00,
2013-05-09 19:48:00,59.0,57.6,29.84,SW,221,0.0,0.0,95,0.25,,---,0.50,VWS V14.01,2013-05-09 23:48:00,
2013-05-09 19:53:00,59.0,57.6,29.84,SW,221,0.0,0.0,95,0.25,,---,0.50,VWS V14.01,2013-05-09 23:53:00,
2013-05-09 19:58:00,58.9,57.5,29.83,SW,221,0.0,0.0,95,0.25,,---,0.50,VWS V14.01,2013-05-09 23:58:00,
2013-05-09 20:03:00,58.8,57.4,29.84,SW,221,0.0,0.0,95,0.11,,---,0.50,VWS V14.01,2013-05-10 00:03:00,
2013-05-09 20:08:00,58.7,57.3,29.84,SW,221,0.0,0.0,95,0.11,,---,0.50,VWS V14.01,2013-05-10 00:08:00,
2013-05-09 20:13:00,58.8,57.4,29.84,SW,221,0.0,0.0,95,0.11,,---,0.50,VWS V14.01,2013-05-10 00:13:00,
2013-05-09 20:18:00,58.7,57.3,29.84,SW,221,0.0,0.0,95,0.11,,---,0.50,VWS V14.01,2013-05-10 00:18:00,
2013-05-09 20:23:00,58.7,57.3,29.84,SW,221,0.0,0.0,95,0.11,,---,0.50,VWS V14.01,2013-05-10 00:23:00,
2013-05-09 20:28:00,58.6,57.2,29.84,SW,221,0.0,0.0,95,0.11,,---,0.50,VWS V14.01,2013-05-10 00:28:00,
2013-05-09 20:33:00,58.7,57.3,29.84,SW,221,0.0,0.0,95,0.03,,---,0.51,VWS V14.01,2013-05-10 00:33:00,
2013-05-09 20:38:00,58.8,57.4,29.84,SW,221,0.0,0.0,95,0.03,,---,0.51,VWS V14.01,2013-05-10 00:38:00,
2013-05-09 20:43:00,58.7,57.3,29.85,SW,221,0.0,0.0,95,0.03,,---,0.51,VWS V14.01,2013-05-10 00:43:00,
2013-05-09 20:48:00,58.7,57.3,29.85,SW,221,0.0,0.0,95,0.03,,---,0.51,VWS V14.01,2013-05-10 00:48:00,
2013-05-09 20:53:00,58.7,57.3,29.85,SW,221,0.0,0.0,95,0.03,,---,0.51,VWS V14.01,2013-05-10 00:53:00,
2013-05-09 20:58:00,58.7,57.3,29.86,SW,221,0.0,0.0,95,0.03,,---,0.51,VWS V14.01,2013-05-10 00:58:00,
2013-05-09 21:03:00,58.7,57.3,29.86,SW,221,0.0,0.0,95,0.01,,---,0.51,VWS V14.01,2013-05-10 01:03:00,
2013-05-09 21:08:00,58.6,57.2,29.86,SW,221,0.0,0.0,95,0.01,,---,0.51,VWS V14.01,2013-05-10 01:08:00,
2013-05-09 21:13:00,58.6,57.2,29.86,SW,221,0.0,0.0,95,0.01,,---,0.51,VWS V14.01,2013-05-10 01:13:00,
2013-05-09 21:18:00,58.5,57.1,29.86,SW,221,0.0,0.0,95,0.01,,---,0.51,VWS V14.01,2013-05-10 01:18:00,
2013-05-09 21:23:00,58.5,57.1,29.86,SW,221,0.0,0.0,95,0.01,,---,0.51,VWS V14.01,2013-05-10 01:23:00,
2013-05-09 21:28:00,58.4,57.0,29.86,SW,221,0.0,0.0,95,0.01,,---,0.51,VWS V14.01,2013-05-10 01:28:00,
2013-05-09 21:33:00,58.4,57.0,29.86,SW,221,0.0,0.0,95,0.00,,---,0.51,VWS V14.01,2013-05-10 01:33:00,
2013-05-09 21:38:00,58.5,57.4,29.86,SW,221,0.0,0.0,96,0.00,,---,0.51,VWS V14.01,2013-05-10 01:38:00,
2013-05-09 21:43:00,58.4,57.0,29.86,SW,221,0.0,0.0,95,0.00,,---,0.51,VWS V14.01,2013-05-10 01:43:00,
2013-05-09 21:48:00,58.3,56.9,29.86,SW,221,0.0,0.0,95,0.00,,---,0.51,VWS V14.01,2013-05-10 01:48:00,
2013-05-09 21:53:00,58.3,56.9,29.86,SW,221,0.0,0.0,95,0.00,,---,0.51,VWS V14.01,2013-05-10 01:53:00,
2013-05-09 21:58:00,58.2,56.8,29.86,SW,221,0.0,0.0,95,0.00,,---,0.51,VWS V14.01,2013-05-10 01:58:00,
2013-05-09 22:03:00,58.1,56.7,29.86,SW,221,0.0,0.0,95,0.00,,---,0.51,VWS V14.01,2013-05-10 02:03:00,
2013-05-09 22:08:00,58.1,56.7,29.86,SW,221,0.0,0.0,95,0.00,,---,0.51,VWS V14.01,2013-05-10 02:08:00,
2013-05-09 22:13:00,58.0,56.6,29.86,SW,221,0.0,0.0,95,0.00,,---,0.51,VWS V14.01,2013-05-10 02:13:00,
2013-05-09 22:18:00,58.0,56.6,29.86,SW,221,0.0,0.0,95,0.00,,---,0.51,VWS V14.01,2013-05-10 02:18:00,
2013-05-09 22:23:00,58.0,56.6,29.86,SW,221,0.0,0.0,95,0.00,,---,0.51,VWS V14.01,2013-05-10 02:23:00,
2013-05-09 22:28:00,57.9,56.5,29.86,SW,221,0.0,0.0,95,0.00,,---,0.51,VWS V14.01,2013-05-10 02:28:00,
2013-05-09 22:33:00,58.0,56.6,29.86,SW,221,0.0,0.0,95,0.00,,---,0.51,VWS V14.01,2013-05-10 02:33:00,
2013-05-09 22:38:00,57.9,56.5,29.86,SW,221,0.0,0.0,95,0.00,,---,0.51,VWS V14.01,2013-05-10 02:38:00,
2013-05-09 22:44:00,58.0,56.9,29.86,SW,221,0.0,0.0,96,0.00,,---,0.51,VWS V14.01,2013-05-10 02:44:00,
2013-05-09 22:49:00,58.1,57.0,29.85,SW,221,0.0,0.0,96,0.00,,---,0.51,VWS V14.01,2013-05-10 02:49:00,
2013-05-09 22:54:00,58.1,57.0,29.86,SW,221,0.0,0.0,96,0.00,,---,0.51,VWS V14.01,2013-05-10 02:54:00,
2013-05-09 22:59:00,58.1,57.0,29.85,SW,221,0.0,0.0,96,0.00,,---,0.51,VWS V14.01,2013-05-10 02:59:00,
2013-05-09 23:04:00,58.0,56.9,29.85,SW,221,0.0,0.0,96,0.00,,---,0.51,VWS V14.01,2013-05-10 03:04:00,
2013-05-09 23:09:00,57.9,56.8,29.85,SW,221,0.0,0.0,96,0.00,,---,0.51,VWS V14.01,2013-05-10 03:09:00,
2013-05-09 23:14:00,57.9,56.8,29.85,SW,221,0.0,0.0,96,0.00,,---,0.51,VWS V14.01,2013-05-10 03:14:00,
2013-05-09 23:19:00,57.8,56.7,29.85,SW,221,0.0,0.0,96,0.00,,---,0.51,VWS V14.01,2013-05-10 03:19:00,
2013-05-09 23:24:00,57.8,56.7,29.85,SW,221,0.0,0.0,96,0.00,,---,0.51,VWS V14.01,2013-05-10 03:24:00,
2013-05-09 23:29:00,57.7,56.3,29.85,SW,221,0.0,0.0,95,0.00,,---,0.51,VWS V14.01,2013-05-10 03:29:00,
2013-05-09 23:34:00,57.7,56.3,29.85,SW,221,0.0,0.0,95,0.00,,---,0.51,VWS V14.01,2013-05-10 03:34:00,
2013-05-09 23:39:00,57.6,56.2,29.85,SW,221,0.0,0.0,95,0.00,,---,0.51,VWS V14.01,2013-05-10 03:39:00,
2013-05-09 23:44:00,57.6,56.5,29.85,SW,221,0.0,0.0,96,0.00,,---,0.51,VWS V14.01,2013-05-10 03:44:00,
2013-05-09 23:49:00,57.6,56.5,29.85,SW,221,0.0,0.0,96,0.00,,---,0.51,VWS V14.01,2013-05-10 03:49:00,
2013-05-09 23:54:00,57.6,56.5,29.85,SW,221,0.0,0.0,96,0.00,,---,0.51,VWS V14.01,2013-05-10 03:54:00,
2013-05-09 23:59:00,57.5,56.1,29.85,SW,221,0.0,0.0,95,0.00,,---,0.51,VWS V14.01,2013-05-10 03:59:00,